sensor_id;sensor_type;location;lat;lon;timestamp;pressure;altitude;pressure_sealevel;temperature;humidity
67818;BME280;54614;47.576;7.524;2023-02-20T00:00:24;99772.38;;;24.26;35.53
67818;BME280;54614;47.576;7.524;2023-02-20T00:02:50;99765.34;;;24.25;35.40
67818;BME280;54614;47.576;7.524;2023-02-20T00:05:17;99763.66;;;24.24;35.57
67818;BME280;54614;47.576;7.524;2023-02-20T00:07:43;99759.97;;;24.25;35.64
67818;BME280;54614;47.576;7.524;2023-02-20T00:10:09;99762.84;;;24.23;35.63
67818;BME280;54614;47.576;7.524;2023-02-20T00:12:36;99772.56;;;24.24;35.67
67818;BME280;54614;47.576;7.524;2023-02-20T00:15:03;99773.94;;;24.20;35.61
67818;BME280;54614;47.576;7.524;2023-02-20T00:17:29;99771.91;;;24.22;35.76
67818;BME280;54614;47.576;7.524;2023-02-20T00:19:55;99773.59;;;24.23;35.54
67818;BME280;54614;47.576;7.524;2023-02-20T00:22:22;99774.59;;;24.22;35.42
67818;BME280;54614;47.576;7.524;2023-02-20T00:24:48;99779.97;;;24.22;35.41
67818;BME280;54614;47.576;7.524;2023-02-20T00:27:14;99781.00;;;24.21;35.43
67818;BME280;54614;47.576;7.524;2023-02-20T00:29:40;99782.00;;;24.20;35.71
67818;BME280;54614;47.576;7.524;2023-02-20T00:32:06;99785.72;;;24.19;35.43
67818;BME280;54614;47.576;7.524;2023-02-20T00:34:31;99773.09;;;24.20;35.77
67818;BME280;54614;47.576;7.524;2023-02-20T00:36:57;99775.97;;;24.18;35.52
67818;BME280;54614;47.576;7.524;2023-02-20T00:39:23;99770.78;;;24.17;35.59
67818;BME280;54614;47.576;7.524;2023-02-20T00:41:49;99777.84;;;24.18;35.49
67818;BME280;54614;47.576;7.524;2023-02-20T00:44:15;99777.84;;;24.18;35.71
67818;BME280;54614;47.576;7.524;2023-02-20T00:46:41;99785.25;;;24.16;35.52
67818;BME280;54614;47.576;7.524;2023-02-20T00:49:07;99779.88;;;24.16;35.74
67818;BME280;54614;47.576;7.524;2023-02-20T00:51:33;99769.28;;;24.14;35.65
67818;BME280;54614;47.576;7.524;2023-02-20T00:54:01;99766.59;;;24.14;35.36
67818;BME280;54614;47.576;7.524;2023-02-20T00:56:27;99757.69;;;24.14;35.44
67818;BME280;54614;47.576;7.524;2023-02-20T00:58:53;99763.56;;;24.17;36.42
67818;BME280;54614;47.576;7.524;2023-02-20T01:01:19;99771.63;;;24.17;35.68
67818;BME280;54614;47.576;7.524;2023-02-20T01:03:45;99780.69;;;24.16;35.55
67818;BME280;54614;47.576;7.524;2023-02-20T01:06:11;99781.53;;;24.17;35.59
67818;BME280;54614;47.576;7.524;2023-02-20T01:08:36;99783.38;;;24.16;35.83
67818;BME280;54614;47.576;7.524;2023-02-20T01:11:02;99773.66;;;24.15;35.66
67818;BME280;54614;47.576;7.524;2023-02-20T01:13:28;99777.34;;;24.14;35.53
67818;BME280;54614;47.576;7.524;2023-02-20T01:15:54;99789.78;;;24.15;35.76
67818;BME280;54614;47.576;7.524;2023-02-20T01:18:20;99783.75;;;24.13;35.90
67818;BME280;54614;47.576;7.524;2023-02-20T01:20:46;99772.34;;;24.11;35.88
67818;BME280;54614;47.576;7.524;2023-02-20T01:23:12;99783.75;;;24.13;35.39
67818;BME280;54614;47.576;7.524;2023-02-20T01:25:37;99775.03;;;24.11;35.75
67818;BME280;54614;47.576;7.524;2023-02-20T01:28:03;99774.00;;;24.12;35.71
67818;BME280;54614;47.576;7.524;2023-02-20T01:30:30;99773.19;;;24.11;35.64
67818;BME280;54614;47.576;7.524;2023-02-20T01:32:55;99773.34;;;24.10;35.70
67818;BME280;54614;47.576;7.524;2023-02-20T01:35:21;99771.50;;;24.10;35.52
67818;BME280;54614;47.576;7.524;2023-02-20T01:37:47;99779.56;;;24.10;35.52
67818;BME280;54614;47.576;7.524;2023-02-20T01:40:20;99774.56;;;24.07;35.83
67818;BME280;54614;47.576;7.524;2023-02-20T01:42:49;99770.00;;;24.08;35.67
67818;BME280;54614;47.576;7.524;2023-02-20T01:45:28;99769.19;;;24.07;35.61
67818;BME280;54614;47.576;7.524;2023-02-20T01:47:57;99772.03;;;24.06;35.61
67818;BME280;54614;47.576;7.524;2023-02-20T01:50:36;99762.97;;;24.07;35.51
67818;BME280;54614;47.576;7.524;2023-02-20T01:53:17;99762.97;;;24.07;35.45
67818;BME280;54614;47.576;7.524;2023-02-20T01:55:51;99756.75;;;24.06;35.59
67818;BME280;54614;47.576;7.524;2023-02-20T01:58:32;99757.78;;;24.05;35.77
67818;BME280;54614;47.576;7.524;2023-02-20T02:01:00;99759.63;;;24.05;35.58
67818;BME280;54614;47.576;7.524;2023-02-20T02:03:30;99753.41;;;24.04;35.39
67818;BME280;54614;47.576;7.524;2023-02-20T02:06:03;99756.94;;;24.05;35.33
67818;BME280;54614;47.576;7.524;2023-02-20T02:08:33;99756.09;;;24.04;35.63
67818;BME280;54614;47.576;7.524;2023-02-20T02:11:10;99756.94;;;24.05;35.69
67818;BME280;54614;47.576;7.524;2023-02-20T02:13:38;99757.94;;;24.04;35.58
67818;BME280;54614;47.576;7.524;2023-02-20T02:16:43;99761.47;;;24.04;35.58
67818;BME280;54614;47.576;7.524;2023-02-20T02:19:31;99765.16;;;24.03;35.33
67818;BME280;54614;47.576;7.524;2023-02-20T02:28:19;99759.13;;;24.01;35.31
67818;BME280;54614;47.576;7.524;2023-02-20T02:39:43;99763.69;;;24.01;35.36
67818;BME280;54614;47.576;7.524;2023-02-20T02:42:42;99767.38;;;24.00;35.26
67818;BME280;54614;47.576;7.524;2023-02-20T02:45:37;99766.53;;;23.99;35.25
67818;BME280;54614;47.576;7.524;2023-02-20T02:48:18;99762.19;;;23.98;35.66
67818;BME280;54614;47.576;7.524;2023-02-20T02:50:51;99763.22;;;23.97;35.22
67818;BME280;54614;47.576;7.524;2023-02-20T02:53:19;99763.84;;;23.99;35.35
67818;BME280;54614;47.576;7.524;2023-02-20T02:55:45;99763.38;;;23.96;35.26
67818;BME280;54614;47.576;7.524;2023-02-20T02:58:12;99756.16;;;23.96;35.37
67818;BME280;54614;47.576;7.524;2023-02-20T03:03:34;99747.91;;;23.98;35.31
67818;BME280;54614;47.576;7.524;2023-02-20T03:06:16;99741.88;;;23.96;35.42
67818;BME280;54614;47.576;7.524;2023-02-20T03:08:53;99747.25;;;23.96;35.09
67818;BME280;54614;47.576;7.524;2023-02-20T03:11:25;99747.25;;;23.96;35.40
67818;BME280;54614;47.576;7.524;2023-02-20T03:14:15;99750.97;;;23.95;35.58
67818;BME280;54614;47.576;7.524;2023-02-20T03:17:49;99746.59;;;23.94;35.16
67818;BME280;54614;47.576;7.524;2023-02-20T03:20:20;99746.78;;;23.92;35.26
67818;BME280;54614;47.576;7.524;2023-02-20T03:22:56;99745.75;;;23.93;35.32
67818;BME280;54614;47.576;7.524;2023-02-20T03:25:35;99744.09;;;23.92;35.09
67818;BME280;54614;47.576;7.524;2023-02-20T03:28:12;99739.56;;;23.93;35.34
67818;BME280;54614;47.576;7.524;2023-02-20T03:30:57;99735.19;;;23.92;35.36
67818;BME280;54614;47.576;7.524;2023-02-20T03:33:37;99736.22;;;23.91;35.30
67818;BME280;54614;47.576;7.524;2023-02-20T03:36:38;99738.91;;;23.91;35.16
67818;BME280;54614;47.576;7.524;2023-02-20T03:39:36;99727.50;;;23.89;34.96
67818;BME280;54614;47.576;7.524;2023-02-20T03:42:23;99715.91;;;23.88;35.17
67818;BME280;54614;47.576;7.524;2023-02-20T03:45:11;99714.06;;;23.89;35.09
67818;BME280;54614;47.576;7.524;2023-02-20T03:47:43;99707.84;;;23.88;35.44
67818;BME280;54614;47.576;7.524;2023-02-20T03:50:12;99717.59;;;23.89;35.13
67818;BME280;54614;47.576;7.524;2023-02-20T03:52:39;99708.69;;;23.89;35.23
67818;BME280;54614;47.576;7.524;2023-02-20T03:55:05;99706.00;;;23.89;34.96
67818;BME280;54614;47.576;7.524;2023-02-20T03:57:40;99700.63;;;23.89;35.28
67818;BME280;54614;47.576;7.524;2023-02-20T04:00:31;99708.69;;;23.89;35.20
67818;BME280;54614;47.576;7.524;2023-02-20T04:03:08;99705.34;;;23.87;35.20
67818;BME280;54614;47.576;7.524;2023-02-20T04:05:42;99713.41;;;23.87;35.00
67818;BME280;54614;47.576;7.524;2023-02-20T04:11:05;99703.66;;;23.86;35.18
67818;BME280;54614;47.576;7.524;2023-02-20T04:13:35;99699.31;;;23.85;35.05
67818;BME280;54614;47.576;7.524;2023-02-20T04:16:03;99706.34;;;23.86;35.27
67818;BME280;54614;47.576;7.524;2023-02-20T04:18:30;99708.03;;;23.87;35.22
67818;BME280;54614;47.576;7.524;2023-02-20T04:21:00;99704.69;;;23.85;34.89
67818;BME280;54614;47.576;7.524;2023-02-20T04:23:32;99696.63;;;23.85;34.92
67818;BME280;54614;47.576;7.524;2023-02-20T04:26:21;99701.16;;;23.84;34.89
67818;BME280;54614;47.576;7.524;2023-02-20T04:28:49;99695.78;;;23.84;34.77
67818;BME280;54614;47.576;7.524;2023-02-20T04:31:16;99685.75;;;23.78;34.99
67818;BME280;54614;47.576;7.524;2023-02-20T04:33:43;99695.97;;;23.83;35.27
67818;BME280;54614;47.576;7.524;2023-02-20T04:36:10;99699.50;;;23.83;35.00
67818;BME280;54614;47.576;7.524;2023-02-20T04:38:35;99695.13;;;23.82;35.19
67818;BME280;54614;47.576;7.524;2023-02-20T04:41:01;99689.75;;;23.82;35.10
67818;BME280;54614;47.576;7.524;2023-02-20T04:43:27;99688.09;;;23.81;35.13
67818;BME280;54614;47.576;7.524;2023-02-20T04:45:53;99691.44;;;23.83;35.19
67818;BME280;54614;47.576;7.524;2023-02-20T04:48:19;99687.06;;;23.82;35.25
67818;BME280;54614;47.576;7.524;2023-02-20T04:50:45;99685.41;;;23.81;34.98
67818;BME280;54614;47.576;7.524;2023-02-20T04:53:10;99688.63;;;23.76;35.29
67818;BME280;54614;47.576;7.524;2023-02-20T04:55:36;99689.94;;;23.81;35.37
67818;BME280;54614;47.576;7.524;2023-02-20T04:58:02;99688.09;;;23.81;34.99
67818;BME280;54614;47.576;7.524;2023-02-20T05:00:29;99696.31;;;23.79;35.09
67818;BME280;54614;47.576;7.524;2023-02-20T05:02:56;99691.13;;;23.78;34.83
67818;BME280;54614;47.576;7.524;2023-02-20T05:05:26;99690.13;;;23.79;35.24
67818;BME280;54614;47.576;7.524;2023-02-20T05:08:00;99691.13;;;23.78;35.06
67818;BME280;54614;47.576;7.524;2023-02-20T05:10:28;99690.28;;;23.77;35.08
67818;BME280;54614;47.576;7.524;2023-02-20T05:12:55;99685.75;;;23.78;35.08
67818;BME280;54614;47.576;7.524;2023-02-20T05:15:23;99706.06;;;23.81;34.69
67818;BME280;54614;47.576;7.524;2023-02-20T05:17:49;99700.03;;;23.78;34.66
67818;BME280;54614;47.576;7.524;2023-02-20T05:20:16;99694.66;;;23.78;34.77
67818;BME280;54614;47.576;7.524;2023-02-20T05:22:47;99688.63;;;23.76;34.47
67818;BME280;54614;47.576;7.524;2023-02-20T05:25:14;99692.50;;;23.74;34.33
67818;BME280;54614;47.576;7.524;2023-02-20T05:27:40;99697.88;;;23.74;34.51
67818;BME280;54614;47.576;7.524;2023-02-20T05:30:08;99694.19;;;23.75;34.37
67818;BME280;54614;47.576;7.524;2023-02-20T05:32:34;99679.91;;;23.74;34.47
67818;BME280;54614;47.576;7.524;2023-02-20T05:35:00;99677.41;;;23.73;34.00
67818;BME280;54614;47.576;7.524;2023-02-20T05:37:27;99678.41;;;23.72;34.06
67818;BME280;54614;47.576;7.524;2023-02-20T05:39:53;99671.38;;;23.71;34.16
67818;BME280;54614;47.576;7.524;2023-02-20T05:42:19;99676.09;;;23.69;34.04
67818;BME280;54614;47.576;7.524;2023-02-20T05:44:47;99669.41;;;23.65;34.93
67818;BME280;54614;47.576;7.524;2023-02-20T05:47:15;99669.59;;;23.63;34.26
67818;BME280;54614;47.576;7.524;2023-02-20T05:49:41;99669.88;;;23.68;34.40
67818;BME280;54614;47.576;7.524;2023-02-20T05:52:07;99665.16;;;23.70;34.63
67818;BME280;54614;47.576;7.524;2023-02-20T05:54:39;99666.38;;;23.68;34.81
67818;BME280;54614;47.576;7.524;2023-02-20T05:57:06;99665.53;;;23.67;34.84
67818;BME280;54614;47.576;7.524;2023-02-20T05:59:32;99666.84;;;23.71;34.93
67818;BME280;54614;47.576;7.524;2023-02-20T06:01:59;99661.66;;;23.70;34.83
67818;BME280;54614;47.576;7.524;2023-02-20T06:04:26;99666.84;;;23.71;34.92
67818;BME280;54614;47.576;7.524;2023-02-20T06:06:52;99668.69;;;23.71;34.68
67818;BME280;54614;47.576;7.524;2023-02-20T06:09:19;99666.19;;;23.69;34.55
67818;BME280;54614;47.576;7.524;2023-02-20T06:11:58;99666.38;;;23.68;34.66
67818;BME280;54614;47.576;7.524;2023-02-20T06:14:25;99663.50;;;23.69;34.45
67818;BME280;54614;47.576;7.524;2023-02-20T06:16:52;99659.97;;;23.69;34.15
67818;BME280;54614;47.576;7.524;2023-02-20T06:19:21;99663.03;;;23.66;34.20
67818;BME280;54614;47.576;7.524;2023-02-20T06:21:50;99666.38;;;23.68;34.07
67818;BME280;54614;47.576;7.524;2023-02-20T06:24:18;99666.00;;;23.71;34.75
67818;BME280;54614;47.576;7.524;2023-02-20T06:26:45;99666.00;;;23.71;34.55
67818;BME280;54614;47.576;7.524;2023-02-20T06:29:13;99669.03;;;23.68;34.38
67818;BME280;54614;47.576;7.524;2023-02-20T06:31:39;99667.84;;;23.70;34.31
67818;BME280;54614;47.576;7.524;2023-02-20T06:34:07;99663.50;;;23.69;34.11
67818;BME280;54614;47.576;7.524;2023-02-20T06:36:37;99676.75;;;23.71;34.53
67818;BME280;54614;47.576;7.524;2023-02-20T06:39:06;99677.59;;;23.71;34.34
67818;BME280;54614;47.576;7.524;2023-02-20T06:41:32;99683.13;;;23.70;34.54
67818;BME280;54614;47.576;7.524;2023-02-20T06:43:58;99672.56;;;23.68;33.94
67818;BME280;54614;47.576;7.524;2023-02-20T06:46:24;99675.44;;;23.67;34.36
67818;BME280;54614;47.576;7.524;2023-02-20T06:48:53;99678.41;;;23.72;34.07
67818;BME280;54614;47.576;7.524;2023-02-20T06:51:23;99684.28;;;23.75;37.91
67818;BME280;54614;47.576;7.524;2023-02-20T06:53:49;99685.16;;;23.68;39.41
67818;BME280;54614;47.576;7.524;2023-02-20T06:56:19;99672.03;;;23.73;39.03
67818;BME280;54614;47.576;7.524;2023-02-20T06:58:49;99677.75;;;23.70;38.56
67818;BME280;54614;47.576;7.524;2023-02-20T07:01:17;99682.41;;;23.76;38.17
67818;BME280;54614;47.576;7.524;2023-02-20T07:03:45;99681.75;;;23.74;37.96
67818;BME280;54614;47.576;7.524;2023-02-20T07:06:11;99682.06;;;23.79;37.66
67818;BME280;54614;47.576;7.524;2023-02-20T07:08:37;99691.78;;;23.80;37.45
67818;BME280;54614;47.576;7.524;2023-02-20T07:11:03;99689.28;;;23.78;37.17
67818;BME280;54614;47.576;7.524;2023-02-20T07:13:29;99686.25;;;23.82;37.21
67818;BME280;54614;47.576;7.524;2023-02-20T07:15:54;99685.50;;;23.88;37.14
67818;BME280;54614;47.576;7.524;2023-02-20T07:18:20;99688.03;;;23.89;37.32
67818;BME280;54614;47.576;7.524;2023-02-20T07:20:50;99694.16;;;23.98;36.94
67818;BME280;54614;47.576;7.524;2023-02-20T07:23:16;99691.66;;;23.96;36.92
67818;BME280;54614;47.576;7.524;2023-02-20T07:25:43;99691.94;;;24.01;36.97
67818;BME280;54614;47.576;7.524;2023-02-20T07:28:09;99695.28;;;24.03;36.58
67818;BME280;54614;47.576;7.524;2023-02-20T07:30:34;99691.41;;;24.06;36.53
67818;BME280;54614;47.576;7.524;2023-02-20T07:33:00;99695.41;;;24.10;36.33
67818;BME280;54614;47.576;7.524;2023-02-20T07:35:26;99692.16;;;24.15;36.19
67818;BME280;54614;47.576;7.524;2023-02-20T07:37:52;99691.63;;;24.19;36.32
67818;BME280;54614;47.576;7.524;2023-02-20T07:40:18;99691.44;;;24.21;36.35
67818;BME280;54614;47.576;7.524;2023-02-20T07:42:44;99692.28;;;24.21;36.45
67818;BME280;54614;47.576;7.524;2023-02-20T07:45:11;99692.44;;;24.20;36.31
67818;BME280;54614;47.576;7.524;2023-02-20T07:47:36;99691.72;;;24.26;36.36
67818;BME280;54614;47.576;7.524;2023-02-20T07:50:03;99691.72;;;24.26;36.28
67818;BME280;54614;47.576;7.524;2023-02-20T07:52:29;99688.53;;;24.30;36.06
67818;BME280;54614;47.576;7.524;2023-02-20T07:54:54;99693.94;;;24.22;36.50
67818;BME280;54614;47.576;7.524;2023-02-20T07:57:20;99694.91;;;24.29;36.12
67818;BME280;54614;47.576;7.524;2023-02-20T07:59:46;99694.56;;;24.32;36.12
67818;BME280;54614;47.576;7.524;2023-02-20T08:02:12;99686.13;;;24.35;36.00
67818;BME280;54614;47.576;7.524;2023-02-20T08:04:38;99684.81;;;24.31;36.20
67818;BME280;54614;47.576;7.524;2023-02-20T08:07:03;99687.97;;;24.35;36.02
67818;BME280;54614;47.576;7.524;2023-02-20T08:09:32;99684.44;;;24.34;36.09
67818;BME280;54614;47.576;7.524;2023-02-20T08:11:58;99689.44;;;24.37;35.77
67818;BME280;54614;47.576;7.524;2023-02-20T08:14:24;99686.41;;;24.40;35.80
67818;BME280;54614;47.576;7.524;2023-02-20T08:16:49;99688.44;;;24.38;35.95
67818;BME280;54614;47.576;7.524;2023-02-20T08:19:15;99686.03;;;24.43;35.47
67818;BME280;54614;47.576;7.524;2023-02-20T08:21:41;99686.03;;;24.43;35.78
67818;BME280;54614;47.576;7.524;2023-02-20T08:24:07;99690.84;;;24.48;35.37
67818;BME280;54614;47.576;7.524;2023-02-20T08:26:33;99685.09;;;24.51;35.33
67818;BME280;54614;47.576;7.524;2023-02-20T08:28:59;99689.84;;;24.49;35.50
67818;BME280;54614;47.576;7.524;2023-02-20T08:31:25;99684.63;;;24.48;35.25
67818;BME280;54614;47.576;7.524;2023-02-20T08:33:53;99694.00;;;24.52;35.12
67818;BME280;54614;47.576;7.524;2023-02-20T08:36:19;99691.31;;;24.52;35.37
67818;BME280;54614;47.576;7.524;2023-02-20T08:38:45;99689.47;;;24.52;34.85
67818;BME280;54614;47.576;7.524;2023-02-20T08:41:11;99681.88;;;24.56;34.90
67818;BME280;54614;47.576;7.524;2023-02-20T08:43:39;99678.16;;;24.57;34.96
67818;BME280;54614;47.576;7.524;2023-02-20T08:46:06;99678.63;;;24.60;34.79
67818;BME280;54614;47.576;7.524;2023-02-20T08:48:33;99670.00;;;24.65;34.55
67818;BME280;54614;47.576;7.524;2023-02-20T08:50:59;99678.72;;;24.67;34.76
67818;BME280;54614;47.576;7.524;2023-02-20T08:53:25;99672.97;;;24.70;34.54
67818;BME280;54614;47.576;7.524;2023-02-20T08:55:51;99672.97;;;24.70;34.58
67818;BME280;54614;47.576;7.524;2023-02-20T08:58:20;99666.75;;;24.69;34.65
67818;BME280;54614;47.576;7.524;2023-02-20T09:00:48;99672.97;;;24.70;34.28
67818;BME280;54614;47.576;7.524;2023-02-20T09:03:14;99664.13;;;24.76;34.53
67818;BME280;54614;47.576;7.524;2023-02-20T09:05:41;99665.16;;;24.75;34.22
67818;BME280;54614;47.576;7.524;2023-02-20T09:08:08;99665.44;;;24.80;33.88
67818;BME280;54614;47.576;7.524;2023-02-20T09:10:34;99662.38;;;24.83;34.21
67818;BME280;54614;47.576;7.524;2023-02-20T09:13:00;99667.09;;;24.81;33.76
67818;BME280;54614;47.576;7.524;2023-02-20T09:15:26;99666.72;;;24.84;33.82
67818;BME280;54614;47.576;7.524;2023-02-20T09:17:54;99658.66;;;24.84;33.79
67818;BME280;54614;47.576;7.524;2023-02-20T09:20:21;99660.97;;;24.87;33.71
67818;BME280;54614;47.576;7.524;2023-02-20T09:22:49;99658.66;;;24.84;33.70
67818;BME280;54614;47.576;7.524;2023-02-20T09:25:16;99656.81;;;24.85;33.65
67818;BME280;54614;47.576;7.524;2023-02-20T09:27:42;99659.31;;;24.86;33.88
67818;BME280;54614;47.576;7.524;2023-02-20T09:30:09;99653.28;;;24.84;33.77
67818;BME280;54614;47.576;7.524;2023-02-20T09:32:38;99653.91;;;24.86;33.55
67818;BME280;54614;47.576;7.524;2023-02-20T09:35:04;99654.19;;;24.91;33.73
67818;BME280;54614;47.576;7.524;2023-02-20T09:37:30;99645.47;;;24.89;33.74
67818;BME280;54614;47.576;7.524;2023-02-20T09:39:55;99646.31;;;24.90;33.49
67818;BME280;54614;47.576;7.524;2023-02-20T09:42:32;99644.06;;;24.93;33.54
67818;BME280;54614;47.576;7.524;2023-02-20T09:45:11;99647.78;;;24.92;33.75
67818;BME280;54614;47.576;7.524;2023-02-20T09:47:54;99645.94;;;24.93;33.72
67818;BME280;54614;47.576;7.524;2023-02-20T09:50:44;99643.03;;;24.94;33.74
67818;BME280;54614;47.576;7.524;2023-02-20T09:53:44;99646.38;;;24.96;33.64
67818;BME280;54614;47.576;7.524;2023-02-20T09:56:20;99647.41;;;24.95;33.99
67818;BME280;54614;47.576;7.524;2023-02-20T09:59:15;99649.75;;;24.98;34.01
67818;BME280;54614;47.576;7.524;2023-02-20T10:01:56;99644.84;;;25.02;33.98
67818;BME280;54614;47.576;7.524;2023-02-20T10:04:39;99644.44;;;25.05;33.54
67818;BME280;54614;47.576;7.524;2023-02-20T10:07:22;99635.53;;;25.04;33.81
67818;BME280;54614;47.576;7.524;2023-02-20T10:09:48;99630.81;;;25.06;33.67
67818;BME280;54614;47.576;7.524;2023-02-20T10:21:07;99620.56;;;25.17;33.52
67818;BME280;54614;47.576;7.524;2023-02-20T10:23:49;99617.03;;;25.16;33.54
67818;BME280;54614;47.576;7.524;2023-02-20T10:26:25;99612.28;;;25.18;33.83
67818;BME280;54614;47.576;7.524;2023-02-20T10:28:51;99601.13;;;25.21;33.79
67818;BME280;54614;47.576;7.524;2023-02-20T10:33:57;99599.28;;;25.22;33.79
67818;BME280;54614;47.576;7.524;2023-02-20T10:36:44;99593.91;;;25.22;33.45
67818;BME280;54614;47.576;7.524;2023-02-20T10:39:19;99580.88;;;25.25;33.47
67818;BME280;54614;47.576;7.524;2023-02-20T10:44:48;99568.06;;;25.27;33.89
67818;BME280;54614;47.576;7.524;2023-02-20T10:47:27;99562.28;;;25.30;33.66
67818;BME280;54614;47.576;7.524;2023-02-20T10:50:06;99555.03;;;25.31;33.98
67818;BME280;54614;47.576;7.524;2023-02-20T10:52:46;99555.09;;;25.37;34.11
67818;BME280;54614;47.576;7.524;2023-02-20T10:55:30;99556.38;;;25.42;33.98
67818;BME280;54614;47.576;7.524;2023-02-20T10:58:34;99575.69;;;25.45;34.05
67818;BME280;54614;47.576;7.524;2023-02-20T11:01:06;99576.72;;;25.44;33.88
67818;BME280;54614;47.576;7.524;2023-02-20T11:03:46;99574.00;;;25.44;34.06
67818;BME280;54614;47.576;7.524;2023-02-20T11:06:18;99559.72;;;25.44;33.99
67818;BME280;54614;47.576;7.524;2023-02-20T11:08:45;99557.84;;;25.44;34.01
67818;BME280;54614;47.576;7.524;2023-02-20T11:11:32;99537.13;;;25.45;33.70
67818;BME280;54614;47.576;7.524;2023-02-20T11:14:11;99528.41;;;25.43;34.14
67818;BME280;54614;47.576;7.524;2023-02-20T11:16:48;99524.50;;;25.45;33.99
67818;BME280;54614;47.576;7.524;2023-02-20T11:19:27;99535.13;;;25.53;34.02
67818;BME280;54614;47.576;7.524;2023-02-20T11:21:54;99533.13;;;25.62;34.10
67818;BME280;54614;47.576;7.524;2023-02-20T11:24:38;99523.53;;;25.53;34.57
67818;BME280;54614;47.576;7.524;2023-02-20T11:27:21;99512.94;;;25.51;34.68
67818;BME280;54614;47.576;7.524;2023-02-20T11:30:00;99495.75;;;25.52;34.49
67818;BME280;54614;47.576;7.524;2023-02-20T11:32:37;99484.59;;;25.55;34.38
67818;BME280;54614;47.576;7.524;2023-02-20T11:35:05;99480.06;;;25.62;34.07
67818;BME280;54614;47.576;7.524;2023-02-20T11:37:36;99479.03;;;25.63;34.03
67818;BME280;54614;47.576;7.524;2023-02-20T11:40:03;99467.13;;;25.73;33.85
67818;BME280;54614;47.576;7.524;2023-02-20T11:42:34;99470.69;;;25.80;34.04
67818;BME280;54614;47.576;7.524;2023-02-20T11:45:23;99474.16;;;25.74;34.16
67818;BME280;54614;47.576;7.524;2023-02-20T11:48:18;99473.56;;;25.78;34.17
67818;BME280;54614;47.576;7.524;2023-02-20T11:50:50;99474.25;;;25.87;34.16
67818;BME280;54614;47.576;7.524;2023-02-20T11:53:28;99458.91;;;25.87;34.17
67818;BME280;54614;47.576;7.524;2023-02-20T11:56:17;99448.56;;;25.91;34.30
67818;BME280;54614;47.576;7.524;2023-02-20T11:58:46;99433.00;;;25.93;33.98
67818;BME280;54614;47.576;7.524;2023-02-20T12:01:33;99439.25;;;25.93;34.19
67818;BME280;54614;47.576;7.524;2023-02-20T12:04:00;99437.38;;;25.94;34.11
67818;BME280;54614;47.576;7.524;2023-02-20T12:06:40;99434.69;;;25.94;33.96
67818;BME280;54614;47.576;7.524;2023-02-20T12:09:18;99424.53;;;25.96;33.92
67818;BME280;54614;47.576;7.524;2023-02-20T12:11:46;99437.59;;;25.99;33.97
67818;BME280;54614;47.576;7.524;2023-02-20T12:14:14;99431.38;;;25.98;33.98
67818;BME280;54614;47.576;7.524;2023-02-20T12:25:34;99406.34;;;26.05;33.96
67818;BME280;54614;47.576;7.524;2023-02-20T12:28:06;99401.16;;;26.03;34.14
67818;BME280;54614;47.576;7.524;2023-02-20T12:34:16;99396.41;;;26.05;33.76
67818;BME280;54614;47.576;7.524;2023-02-20T12:45:37;99386.66;;;26.04;34.27
67818;BME280;54614;47.576;7.524;2023-02-20T12:50:58;99382.09;;;26.05;34.40
67818;BME280;54614;47.576;7.524;2023-02-20T12:59:30;99367.78;;;26.04;34.88
67818;BME280;54614;47.576;7.524;2023-02-20T13:02:23;99363.00;;;26.06;34.76
67818;BME280;54614;47.576;7.524;2023-02-20T13:04:57;99355.13;;;26.05;34.93
67818;BME280;54614;47.576;7.524;2023-02-20T13:07:36;99354.28;;;26.04;35.09
67818;BME280;54614;47.576;7.524;2023-02-20T13:10:29;99358.03;;;26.03;35.53
67818;BME280;54614;47.576;7.524;2023-02-20T13:12:55;99352.97;;;25.93;35.41
67818;BME280;54614;47.576;7.524;2023-02-20T13:21:16;99341.69;;;26.24;35.72
67818;BME280;54614;47.576;7.524;2023-02-20T13:23:42;99335.31;;;26.32;35.33
67818;BME280;54614;47.576;7.524;2023-02-20T13:31:56;99330.47;;;26.21;35.03
67818;BME280;54614;47.576;7.524;2023-02-20T13:34:34;99327.38;;;26.17;35.29
67818;BME280;54614;47.576;7.524;2023-02-20T13:37:01;99324.47;;;26.19;35.04
67818;BME280;54614;47.576;7.524;2023-02-20T13:42:26;99317.81;;;26.15;34.96
67818;BME280;54614;47.576;7.524;2023-02-20T13:44:53;99321.34;;;26.15;35.24
67818;BME280;54614;47.576;7.524;2023-02-20T13:47:36;99316.56;;;26.17;35.75
67818;BME280;54614;47.576;7.524;2023-02-20T13:50:27;99313.88;;;26.17;36.16
67818;BME280;54614;47.576;7.524;2023-02-20T13:52:54;99306.63;;;26.18;36.56
67818;BME280;54614;47.576;7.524;2023-02-20T13:55:25;99304.97;;;26.17;36.55
67818;BME280;54614;47.576;7.524;2023-02-20T13:57:56;99302.06;;;26.18;36.34
67818;BME280;54614;47.576;7.524;2023-02-20T14:00:50;99292.91;;;26.13;36.25
67818;BME280;54614;47.576;7.524;2023-02-20T14:03:28;99292.09;;;26.12;36.57
67818;BME280;54614;47.576;7.524;2023-02-20T14:06:17;99290.44;;;26.11;36.28
67818;BME280;54614;47.576;7.524;2023-02-20T14:08:48;99283.38;;;26.10;36.73
67818;BME280;54614;47.576;7.524;2023-02-20T14:11:34;99287.31;;;26.08;36.59
67818;BME280;54614;47.576;7.524;2023-02-20T14:14:10;99275.28;;;26.04;36.41
67818;BME280;54614;47.576;7.524;2023-02-20T14:16:41;99274.25;;;26.05;36.14
67818;BME280;54614;47.576;7.524;2023-02-20T14:19:26;99269.88;;;26.04;36.03
67818;BME280;54614;47.576;7.524;2023-02-20T14:21:54;99269.88;;;26.04;36.21
67818;BME280;54614;47.576;7.524;2023-02-20T14:24:27;99259.31;;;26.02;35.86
67818;BME280;54614;47.576;7.524;2023-02-20T14:26:54;99261.81;;;26.04;35.50
67818;BME280;54614;47.576;7.524;2023-02-20T14:29:31;99257.66;;;26.01;35.55
67818;BME280;54614;47.576;7.524;2023-02-20T14:32:01;99248.72;;;26.00;35.76
67818;BME280;54614;47.576;7.524;2023-02-20T14:34:53;99244.53;;;25.98;35.51
67818;BME280;54614;47.576;7.524;2023-02-20T14:40:41;99239.56;;;25.95;35.40
67818;BME280;54614;47.576;7.524;2023-02-20T14:43:23;99235.84;;;25.96;35.56
67818;BME280;54614;47.576;7.524;2023-02-20T14:46:03;99232.31;;;25.95;35.30